Terminal Aerodrome Forecast
Issued by NWS

Home | Current Version | Previous Version | Text Only | Print | Product List | Glossary On
Versions: 1 2 3 4 5 6 7 8 9 10 11 12 13
000
FTUS45 KTWC 232300
TAFOLS
TAF
KOLS 232320Z 2400/2424 24014G24KT P6SM BKN250
     FM240300 26007KT P6SM SCT250
     FM240600 VRB03KT P6SM SCT250
     FM242100 22013KT P6SM SCT250=

USA.gov is the U.S. government's official web portal to all federal, state and local government web resources and services.